Flight Track Log - Related Links

Times and Time Zones

All times are in EDT time to prevent confusion due to time zone crossing. See the EJA929 flight status page for this flight to view local times or setup timezone preferences in your user account.


Time Position Orientation Groundspeed Altitude Reporting Facility
EDT Latitude Longitude Course Direction KTS MPH feet Rate Location/Type
Sun 12:14:17 PM 32.9797 -80.0300 17° North 189 217 4,800  Level Jacksonville Center
Sun 12:15:17 PM 33.0542 -80.0028 17° North 223 257 7,700 2,600 Climbing Jacksonville Center
Sun 12:16:17 PM 33.1308 -79.9756 17° North 264 304 10,000 1,700 Climbing Jacksonville Center
Sun 12:17:17 PM 33.2197 -79.9428 17° North 300 345 11,100 1,750 Climbing Jacksonville Center
Sun 12:18:17 PM 33.3150 -79.9147 14° North 320 368 13,500 2,350 Climbing Jacksonville Center
Sun 12:19:17 PM 33.4125 -79.8867 14° North 348 400 15,800 2,150 Climbing Jacksonville Center
Sun 12:20:17 PM 33.5078 -79.8611 13° North 353 406 17,800 1,850 Climbing Jacksonville Center
Sun 12:21:17 PM 33.6075 -79.8353 12° North 353 406 19,500 1,750 Climbing Jacksonville Center
Sun 12:22:17 PM 33.7069 -79.8067 13° North 353 406 21,300 1,800 Climbing Jacksonville Center
Sun 12:23:17 PM 33.8083 -79.7783 13° North 360 414 23,100 1,800 Climbing Jacksonville Center
Sun 12:24:17 PM 33.9031 -79.7222 26° Northeast 367 422 24,900 1,800 Climbing Jacksonville Center
Sun 12:25:17 PM 33.9864 -79.6342 41° Northeast 376 433 26,700 1,750 Climbing Jacksonville Center
Sun 12:26:17 PM 34.0694 -79.5458 41° Northeast 387 445 28,400 1,550 Climbing Jacksonville Center
Sun 12:27:17 PM 34.1569 -79.4597 39° Northeast 397 457 29,800 1,333 Climbing Jacksonville Center
Sun 12:28:50 PM 34.2739 -79.3364 41° Northeast 386 444 31,800 1,451 Climbing Washington Center
Sun 12:29:50 PM 34.3814 -79.2281 40° Northeast 405 466 33,500 1,537 Climbing Washington Center
Sun 12:30:51 PM 34.4697 -79.1364 41° Northeast 411 473 34,900 1,525 Climbing Washington Center
Sun 12:31:52 PM 34.5642 -79.0497 37° Northeast 417 480 36,600 1,815 Climbing Washington Center
Sun 12:32:50 PM 34.6564 -78.9625 38° Northeast 417 480 38,500 1,831 Climbing Washington Center
Sun 12:33:50 PM 34.7464 -78.8781 38° Northeast 417 480 40,200 1,220 Climbing Washington Center
Sun 12:34:53 PM 34.8383 -78.7931 37° Northeast 417 480 41,000 397 Climbing Washington Center
Sun 12:35:51 PM 34.9369 -78.7006 38° Northeast 427 491 41,000  Level Washington Center
Sun 12:36:51 PM 35.0331 -78.6081 38° Northeast 427 491 41,000  Level Washington Center
Sun 12:37:52 PM 35.1333 -78.5153 37° Northeast 433 498 41,000  Level Washington Center
Sun 12:38:53 PM 35.2233 -78.4269 39° Northeast 446 513 41,000  Level Washington Center
Sun 12:39:50 PM 35.3214 -78.3336 38° Northeast 451 519 41,000  Level Washington Center
Sun 12:40:50 PM 35.4217 -78.2378 38° Northeast 451 519 41,000  Level Washington Center
Sun 12:41:51 PM 35.5217 -78.1414 38° Northeast 451 519 41,000  Level Washington Center
Sun 12:42:51 PM 35.6239 -78.0450 37° Northeast 451 519 41,000  Level Washington Center
Sun 12:43:52 PM 35.7217 -77.9508 38° Northeast 451 519 41,000  Level Washington Center
Sun 12:44:52 PM 35.8217 -77.8564 37° Northeast 451 519 41,000  Level Washington Center
Sun 12:45:50 PM 35.9194 -77.7592 39° Northeast 451 519 41,000  Level Washington Center
Sun 12:46:51 PM 36.0192 -77.6619 38° Northeast 451 519 41,000  Level Washington Center
Sun 12:47:52 PM 36.1147 -77.5614 40° Northeast 451 519 41,000  Level Washington Center
Sun 12:48:52 PM 36.2103 -77.4661 39° Northeast 451 519 41,000  Level Washington Center
Sun 12:49:50 PM 36.3058 -77.3600 42° Northeast 451 519 41,000  Level Washington Center
Sun 12:50:51 PM 36.4031 -77.2592 40° Northeast 451 519 41,000  Level Washington Center
Sun 12:51:51 PM 36.4983 -77.1553 41° Northeast 451 519 41,000  Level Washington Center
Sun 12:52:52 PM 36.5978 -77.0536 39° Northeast 451 519 41,000  Level Washington Center
Sun 12:53:52 PM 36.6950 -76.9467 41° Northeast 456 525 41,000  Level Washington Center
Sun 12:54:53 PM 36.7922 -76.8447 40° Northeast 456 525 41,000  Level Washington Center
Sun 12:55:50 PM 36.8892 -76.7397 41° Northeast 456 525 41,000  Level Washington Center
Sun 12:56:50 PM 36.9861 -76.6344 41° Northeast 461 531 41,000  Level Washington Center
Sun 12:57:52 PM 37.0808 -76.5317 41° Northeast 461 531 41,000  Level Washington Center
Sun 12:58:52 PM 37.1881 -76.4131 41° Northeast 461 531 41,000  Level Washington Center
Sun 12:59:50 PM 37.2867 -76.3097 40° Northeast 466 536 41,000  Level Washington Center
Sun 01:00:51 PM 37.3853 -76.2033 41° Northeast 466 536 41,000  Level Washington Center
Sun 01:01:51 PM 37.4775 -76.1125 38° Northeast 466 536 41,000  Level Washington Center
Sun 01:02:50 PM 37.5739 -76.0058 41° Northeast 466 536 41,000  Level Washington Center
Sun 01:03:50 PM 37.6722 -75.8961 41° Northeast 466 536 41,000  Level Washington Center
Sun 01:04:50 PM 37.7706 -75.7889 41° Northeast 466 536 41,000  Level Washington Center
Sun 01:05:51 PM 37.8667 -75.6811 42° Northeast 466 536 41,000  Level Washington Center
Sun 01:06:52 PM 37.9644 -75.5761 40° Northeast 466 536 41,000  Level Washington Center
Sun 01:07:52 PM 38.0625 -75.4706 40° Northeast 466 536 41,000 -51 Level Washington Center
Sun 01:08:50 PM 38.1750 -75.3911 29° Northeast 461 531 40,900 -655 Descending Washington Center
Sun 01:09:51 PM 38.2894 -75.3219 25° Northeast 454 522 39,700 -934 Descending Washington Center
Sun 01:10:52 PM 38.4042 -75.2472 27° Northeast 454 522 39,000 -353 Descending Washington Center
Sun 01:11:50 PM 38.5206 -75.1697 28° Northeast 459 528 39,000  Level Washington Center
Sun 01:12:51 PM 38.6369 -75.0919 28° Northeast 459 528 39,000  Level Washington Center
Sun 01:13:51 PM 38.7556 -75.0192 26° Northeast 464 534 39,000  Level Washington Center
Sun 01:14:51 PM 38.8719 -74.9464 26° Northeast 464 534 39,000 -446 Level Washington Center
Sun 01:15:52 PM 38.9883 -74.8733 26° Northeast 464 534 38,100 -1,765 Descending Washington Center
Sun 01:16:50 PM 39.1044 -74.7892 29° Northeast 464 534 35,500 -2,746 Descending Washington Center
Sun 01:17:50 PM 39.2181 -74.6753 38° Northeast 495 570 32,700 -2,851 Descending Washington Center
Sun 01:20:12 PM 39.4889 -74.3917 39° Northeast 526 605 25,900 -2,614 Descending New York Center
Sun 01:21:12 PM 39.5944 -74.2811 39° Northeast 508 585 23,900 -1,400 Descending New York Center
Sun 01:22:12 PM 39.6997 -74.1706 39° Northeast 498 573 23,100 -1,300 Descending New York Center
Sun 01:23:12 PM 39.8008 -74.0644 39° Northeast 476 548 21,300 -1,719 Descending New York Center
Sun 01:25:31 PM 40.0289 -73.8186 40° Northeast 450 518 17,400 -1,327 Descending Boston Center
Sun 01:26:31 PM 40.1233 -73.7178 39° Northeast 443 510 16,900 -248 Descending Boston Center
Sun 01:27:32 PM 40.2192 -73.6164 39° Northeast 432 497 16,900  Level Boston Center
Sun 01:28:35 PM 40.3072 -73.5242 39° Northeast 405 466 16,900  Level Boston Center
Sun 01:29:36 PM 40.3883 -73.4500 35° Northeast 358 412 16,900  Level Boston Center
Sun 01:30:40 PM 40.4819 -73.4164 15° North 350 403 16,900  Level Boston Center
Sun 01:31:40 PM 40.5981 -73.3753 15° North 358 412 16,900 -339 Level Boston Center
Sun 01:32:44 PM 40.6939 -73.3425 15° North 354 407 16,200 -871 Descending Boston Center
Sun 01:33:44 PM 40.7811 -73.3067 17° North 336 387 15,100 -1,256 Descending Boston Center
Sun 01:34:53 PM 40.8500 -73.2000 49° Northeast 302 348 13,500 -1,333 Descending New York TRACON
Sun 01:35:59 PM 40.8833 -73.1000 66° East 322 371 12,100 -1,333 Descending New York TRACON
Sun 01:36:59 PM 40.9333 -73.0167 52° Northeast 287 330 10,700 -1,700 Descending New York TRACON
Sun 01:37:59 PM 41.0167 -73.0500 343° North 296 341 8,700 -1,850 Descending New York TRACON
Sun 01:38:59 PM 41.0500 -73.1333 298° West 278 320 7,000 -1,650 Descending New York TRACON
Sun 01:39:59 PM 41.0833 -73.2333 294° West 271 312 5,400 -1,250 Descending New York TRACON
Sun 01:40:59 PM 41.1167 -73.3167 298° West 263 303 4,500 -700 Descending New York TRACON
Sun 01:41:59 PM 41.1333 -73.4000 285° West 258 297 4,000 -750 Descending New York TRACON
Sun 01:42:59 PM 41.1667 -73.4833 298° West 252 290 3,000 -524 Descending New York TRACON
Sun 01:44:05 PM 41.2000 -73.5833 294° West 249 287 2,900 -333 Descending New York TRACON
Sun 01:45:05 PM 41.2000 -73.6500 270° West 193 222 2,300 -450 Descending New York TRACON
Sun 01:46:05 PM 41.1833 -73.7167 252° West 189 217 2,000 -150 Descending New York TRACON
Sun 01:47:05 PM 41.1500 -73.7667 228° Southwest 182 209 2,000 -350 Level New York TRACON
Sun 01:48:05 PM 41.1167 -73.7333 143° Southeast 151 174 1,300 -700 Descending New York TRACON
Sun 01:49:05 PM 41.0833 -73.7167 159° South 125 144 600 -700 Descending New York TRACON
Sun 01:51:00 PM 41.0667 -73.7000 153° Southeast  Level FlightAware Approximate
Sun 01:58:00 PM 41.0669 -73.7076 153° Southeast  Level Estimated

Login

Don't have an account? Register now (free) for customized features, flight alerts, and more!